Time;durP1;ratioP1;P1;durP2;ratioP2;P2;SDS_P1;SDS_P2;PMS_P1;PMS_P2;Temp;Humidity;BMP_temperature;BMP_pressure;BME280_temperature;BME280_humidity;BME280_pressure;Samples;Min_cycle;Max_cycle;Signal;HPM_P1;HPM_P2
2022/08/15 00:00:21;;;;;;;;;15.50;15.50;;;;;20.24;78.02;99771.81;4976654;28;45408;-75
2022/08/15 00:02:48;;;;;;;;;17.00;15.75;;;;;20.28;77.67;99770.63;4976629;28;45531;-74
2022/08/15 00:05:22;;;;;;;;;17.00;17.00;;;;;20.30;77.63;99771.38;4976654;28;46258;-74
2022/08/15 00:07:48;;;;;;;;;18.00;17.25;;;;;20.32;77.59;99765.91;4976252;28;45432;-76
2022/08/15 00:10:18;;;;;;;;;17.00;16.50;;;;;20.33;77.35;99764.91;4976304;28;45723;-75
2022/08/15 00:12:44;;;;;;;;;17.25;17.25;;;;;20.27;77.35;99750.13;4977210;28;45348;-75
2022/08/15 00:15:14;;;;;;;;;16.50;16.50;;;;;20.35;77.39;99769.19;4991598;28;47147;-76
2022/08/15 00:17:41;;;;;;;;;18.00;18.00;;;;;20.33;77.04;99764.91;4975873;28;45441;-75
2022/08/15 00:20:09;;;;;;;;;19.00;19.00;;;;;20.34;76.93;99758.59;4975510;28;45438;-75
2022/08/15 00:22:35;;;;;;;;;17.75;17.75;;;;;20.35;76.78;99758.47;4977035;28;45490;-74
2022/08/15 00:25:01;;;;;;;;;18.50;17.50;;;;;20.36;76.64;99756.63;4975794;28;45437;-75
2022/08/15 00:27:26;;;;;;;;;20.75;18.25;;;;;20.35;76.59;99754.94;4975631;28;45558;-75
2022/08/15 00:29:53;;;;;;;;;24.25;21.00;;;;;20.27;76.70;99752.81;4976330;28;45444;-75
2022/08/15 00:32:23;;;;;;;;;18.75;16.00;;;;;20.33;76.35;99751.50;4976185;28;45490;-75
2022/08/15 00:34:50;;;;;;;;;23.25;21.00;;;;;20.29;76.02;99747.34;4990766;28;45454;-75
2022/08/15 00:37:17;;;;;;;;;18.00;16.50;;;;;20.31;75.79;99746.25;4975960;28;45528;-75
2022/08/15 00:39:43;;;;;;;;;20.50;18.75;;;;;20.30;75.25;99744.53;4975492;28;45460;-76
2022/08/15 00:42:09;;;;;;;;;17.50;17.25;;;;;20.27;75.10;99744.78;4976200;28;45435;-75
2022/08/15 00:44:42;;;;;;;;;20.50;17.75;;;;;20.28;74.64;99743.78;4975812;28;45444;-74
2022/08/15 00:47:12;;;;;;;;;20.50;19.25;;;;;20.26;74.49;99748.41;4975702;28;45389;-75
2022/08/15 00:49:37;;;;;;;;;17.00;15.25;;;;;20.27;74.30;99744.78;4976026;28;45353;-75
2022/08/15 00:52:03;;;;;;;;;17.50;17.50;;;;;20.26;74.09;99744.88;4976035;28;45380;-74
2022/08/15 00:54:28;;;;;;;;;19.25;18.00;;;;;20.26;73.97;99744.88;4975100;28;46181;-75
2022/08/15 00:57:00;;;;;;;;;17.00;14.75;;;;;20.25;73.93;99735.97;4974395;28;45379;-74
2022/08/15 00:59:31;;;;;;;;;21.75;18.00;;;;;20.24;73.89;99748.53;4975885;28;45394;-75
2022/08/15 01:01:58;;;;;;;;;18.25;18.25;;;;;20.25;73.56;99746.69;4975526;28;45508;-74
2022/08/15 01:04:24;;;;;;;;;16.50;16.50;;;;;20.22;73.69;99741.56;4975432;28;45434;-75
2022/08/15 01:06:49;;;;;;;;;20.25;18.75;;;;;20.22;73.44;99741.56;4975290;28;45430;-75
2022/08/15 01:09:17;;;;;;;;;19.50;19.25;;;;;20.21;73.60;99745.22;4974939;28;45483;-75
2022/08/15 01:12:06;;;;;;;;;18.00;17.00;;;;;20.20;73.55;99748.88;4974335;28;45710;-75
2022/08/15 01:14:32;;;;;;;;;21.75;19.00;;;;;20.20;73.40;99743.50;4964700;28;47088;-75
2022/08/15 01:16:58;;;;;;;;;24.50;19.00;;;;;20.16;73.73;99733.97;4975100;28;45404;-76
2022/08/15 01:19:29;;;;;;;;;18.25;15.75;;;;;20.13;73.48;99731.50;4975641;28;45470;-75
2022/08/15 01:22:23;;;;;;;;;21.50;20.25;;;;;20.16;73.46;99742.00;4975570;28;45693;-74
2022/08/15 01:24:57;;;;;;;;;19.25;18.75;;;;;20.13;73.22;99743.06;4975371;28;46194;-73
2022/08/15 01:27:29;;;;;;;;;19.75;18.00;;;;;20.10;73.45;99732.56;4975633;28;45463;-74
2022/08/15 01:29:56;;;;;;;;;23.00;19.75;;;;;20.10;73.49;99742.47;4974989;28;45503;-75
2022/08/15 01:32:21;;;;;;;;;22.25;20.00;;;;;20.09;73.67;99741.63;4975685;28;45460;-75
2022/08/15 01:34:46;;;;;;;;;20.00;18.50;;;;;20.07;73.43;99743.53;4974680;28;45441;-77
2022/08/15 01:37:12;;;;;;;;;23.75;20.50;;;;;19.98;73.12;99728.97;4975367;28;45452;-75
2022/08/15 01:39:50;;;;;;;;;18.50;17.25;;;;;20.03;72.93;99742.91;4975114;28;45389;-76
2022/08/15 01:42:22;;;;;;;;;21.25;19.75;;;;;20.02;73.03;99743.88;4975511;28;45389;-74
2022/08/15 01:44:57;;;;;;;;;19.75;18.75;;;;;19.98;73.32;99739.72;5006194;28;46036;-74
2022/08/15 01:47:46;;;;;;;;;21.25;20.25;;;;;19.99;73.57;99740.56;4975145;28;45467;-74
2022/08/15 01:50:23;;;;;;;;;20.25;20.25;;;;;19.91;74.11;99740.28;4976357;28;45459;-73
2022/08/15 01:52:57;;;;;;;;;23.50;18.50;;;;;19.90;74.45;99736.72;4975694;28;45565;-75
2022/08/15 01:55:32;;;;;;;;;22.50;19.25;;;;;19.85;74.50;99734.38;4974629;28;45450;-74
2022/08/15 01:57:57;;;;;;;;;23.00;17.50;;;;;19.81;75.38;99734.69;4975121;28;45497;-74
2022/08/15 02:00:23;;;;;;;;;21.50;20.00;;;;;19.79;75.59;99732.13;4974506;28;45591;-75
2022/08/15 02:02:48;;;;;;;;;25.00;23.50;;;;;19.77;75.89;99731.38;4974825;28;45386;-75
2022/08/15 02:05:14;;;;;;;;;20.50;20.50;;;;;19.75;75.83;99735.09;4973790;28;45621;-76
2022/08/15 02:07:40;;;;;;;;;23.25;22.00;;;;;19.69;76.49;99723.88;4974505;28;45545;-75
2022/08/15 02:10:07;;;;;;;;;17.00;17.00;;;;;19.68;76.13;99729.34;4974226;28;45312;-74
2022/08/15 02:12:35;;;;;;;;;21.00;21.00;;;;;19.68;76.23;99735.53;4989976;28;45444;-75
2022/08/15 02:15:06;;;;;;;;;25.50;21.25;;;;;19.66;75.88;99724.09;4974169;28;46585;-75
2022/08/15 02:17:32;;;;;;;;;21.25;21.25;;;;;19.66;75.70;99725.88;4974907;28;45390;-73
2022/08/15 02:19:59;;;;;;;;;24.25;22.50;;;;;19.60;75.85;99719.16;4974795;28;45392;-73
2022/08/15 02:22:26;;;;;;;;;22.25;18.75;;;;;19.61;75.61;99720.00;4975344;28;45543;-72
2022/08/15 02:24:53;;;;;;;;;22.75;20.00;;;;;19.57;75.49;99722.06;4973881;28;45536;-74
2022/08/15 02:27:18;;;;;;;;;23.00;20.25;;;;;19.53;75.75;99717.88;4973900;28;45459;-73
2022/08/15 02:29:44;;;;;;;;;26.25;23.75;;;;;19.41;75.45;99705.34;4974832;28;45628;-73
2022/08/15 02:32:14;;;;;;;;;22.75;21.25;;;;;19.53;75.32;99716.03;4974522;28;45558;-73
2022/08/15 02:34:43;;;;;;;;;21.00;19.50;;;;;19.45;75.26;99705.03;4972846;28;47009;-74
2022/08/15 02:37:09;;;;;;;;;22.50;22.00;;;;;19.47;75.02;99712.97;4974179;28;45395;-73
2022/08/15 02:39:35;;;;;;;;;20.00;19.25;;;;;19.45;75.10;99710.38;4974045;28;45398;-73
2022/08/15 02:42:01;;;;;;;;;28.00;23.25;;;;;19.45;75.28;99709.50;4973741;28;45496;-73
2022/08/15 02:44:26;;;;;;;;;23.00;23.00;;;;;19.41;75.21;99708.03;4974151;28;45448;-73
2022/08/15 02:46:54;;;;;;;;;19.50;17.75;;;;;19.41;75.53;99708.03;4974646;28;45498;-73
2022/08/15 02:49:20;;;;;;;;;24.75;21.25;;;;;19.39;75.88;99704.59;4974709;28;45498;-74
2022/08/15 02:51:47;;;;;;;;;20.75;19.50;;;;;19.38;76.38;99706.41;4974366;28;45515;-74
2022/08/15 02:54:16;;;;;;;;;20.75;20.50;;;;;19.32;76.83;99705.03;4973791;28;45508;-74
2022/08/15 02:56:41;;;;;;;;;23.75;22.25;;;;;19.30;77.50;99700.75;4963738;28;45419;-74
2022/08/15 02:59:07;;;;;;;;;27.75;23.75;;;;;19.23;77.76;99700.31;4954512;28;45371;-73
2022/08/15 03:01:37;;;;;;;;;26.50;23.75;;;;;19.19;78.50;99704.16;4955207;28;45571;-73
2022/08/15 03:04:06;;;;;;;;;27.75;25.00;;;;;19.17;79.17;99703.41;4954593;28;45415;-73
2022/08/15 03:06:33;;;;;;;;;29.50;25.75;;;;;19.15;79.37;99700.00;4963498;28;45333;-74
2022/08/15 03:09:06;;;;;;;;;22.50;21.00;;;;;19.12;79.41;99692.19;4973530;28;45358;-75
2022/08/15 03:11:36;;;;;;;;;23.25;23.25;;;;;19.12;79.51;99692.19;4973943;28;45428;-73
2022/08/15 03:14:01;;;;;;;;;25.50;25.00;;;;;19.09;79.59;99693.25;4974279;28;45459;-73
2022/08/15 03:16:27;;;;;;;;;26.50;24.50;;;;;19.09;79.50;99693.25;4976810;28;45465;-72
2022/08/15 03:18:54;;;;;;;;;25.00;23.00;;;;;19.09;79.59;99692.41;4977653;28;45374;-73
2022/08/15 03:21:20;;;;;;;;;34.75;26.50;;;;;19.06;79.88;99698.81;4977360;28;45594;-73
2022/08/15 03:23:49;;;;;;;;;31.50;28.50;;;;;19.00;79.97;99685.84;4976852;28;45348;-74
2022/08/15 03:26:25;;;;;;;;;29.75;27.25;;;;;18.97;80.33;99678.88;4976800;28;45502;-73
2022/08/15 03:28:51;;;;;;;;;26.00;21.50;;;;;18.97;80.04;99689.59;4978329;28;45363;-73
2022/08/15 03:31:17;;;;;;;;;19.25;19.00;;;;;18.96;80.63;99679.84;4977394;28;45508;-73
2022/08/15 03:33:45;;;;;;;;;27.75;27.00;;;;;18.96;80.60;99685.22;4977192;28;46524;-73
2022/08/15 03:36:11;;;;;;;;;27.50;25.50;;;;;18.95;80.45;99680.81;4977079;28;45420;-73
2022/08/15 03:38:37;;;;;;;;;32.75;28.00;;;;;18.96;80.14;99679.84;4977338;28;45409;-72
2022/08/15 03:41:08;;;;;;;;;31.50;26.00;;;;;18.95;80.22;99683.50;4975905;28;45542;-73
2022/08/15 03:43:33;;;;;;;;;27.25;23.00;;;;;18.94;80.01;99683.59;4977132;28;45572;-73
2022/08/15 03:46:02;;;;;;;;;26.75;22.25;;;;;18.93;79.82;99687.22;4976997;28;45486;-73
2022/08/15 03:48:34;;;;;;;;;27.00;23.75;;;;;18.90;80.05;99682.94;4977285;28;45386;-73
2022/08/15 03:51:01;;;;;;;;;24.00;22.75;;;;;18.89;80.08;99678.56;4976780;28;45463;-74
2022/08/15 03:53:33;;;;;;;;;25.50;23.75;;;;;18.88;80.33;99673.31;4976342;28;45548;-74
2022/08/15 03:56:01;;;;;;;;;24.50;22.00;;;;;18.86;80.29;99681.44;4976227;28;45482;-73
2022/08/15 03:58:27;;;;;;;;;25.75;25.50;;;;;18.85;80.52;99673.50;4976562;28;45376;-73
2022/08/15 04:00:53;;;;;;;;;20.75;20.00;;;;;18.83;79.71;99670.91;4976629;28;45419;-74
2022/08/15 04:03:22;;;;;;;;;29.00;27.50;;;;;18.80;79.84;99663.09;4976734;28;46051;-74
2022/08/15 04:05:51;;;;;;;;;21.25;14.75;;;;;18.81;79.53;99675.50;4976487;28;45485;-73
2022/08/15 04:08:22;;;;;;;;;27.25;25.00;;;;;18.74;79.41;99659.03;4977078;28;45545;-73
2022/08/15 04:10:50;;;;;;;;;25.75;24.25;;;;;18.76;79.57;99658.91;4975721;28;45530;-74
2022/08/15 04:13:19;;;;;;;;;30.00;26.00;;;;;18.77;79.57;99655.28;4976768;28;45471;-73
2022/08/15 04:15:45;;;;;;;;;31.25;29.75;;;;;18.73;79.94;99651.94;4976584;28;45341;-73
2022/08/15 04:18:11;;;;;;;;;19.75;15.75;;;;;18.75;80.08;99657.19;4976799;28;45527;-73
2022/08/15 04:20:37;;;;;;;;;22.50;22.50;;;;;18.67;79.79;99643.50;4976539;28;45531;-74
2022/08/15 04:23:02;;;;;;;;;30.25;26.00;;;;;18.71;80.47;99663.72;4976168;28;45448;-74
2022/08/15 04:25:37;;;;;;;;;26.25;22.00;;;;;18.69;80.52;99662.97;4974039;28;45919;-73
2022/08/15 04:28:04;;;;;;;;;22.75;22.50;;;;;18.67;80.84;99660.38;4975542;28;45490;-73
2022/08/15 04:30:34;;;;;;;;;28.00;25.75;;;;;18.63;80.29;99662.44;4976249;28;45634;-73
2022/08/15 04:33:29;;;;;;;;;25.25;22.50;;;;;18.61;80.67;99666.16;4976116;28;46353;-73
2022/08/15 04:35:58;;;;;;;;;29.25;26.75;;;;;18.56;80.48;99663.81;4975513;28;45503;-74
2022/08/15 04:38:23;;;;;;;;;24.75;24.75;;;;;18.58;80.59;99667.22;4975936;28;45511;-72
2022/08/15 04:40:49;;;;;;;;;27.00;24.25;;;;;18.58;80.55;99671.72;4975218;28;45462;-73
2022/08/15 04:43:17;;;;;;;;;23.25;23.25;;;;;18.55;80.46;99667.44;4975974;28;45542;-73
2022/08/15 04:45:43;;;;;;;;;23.25;19.50;;;;;18.53;80.52;99658.66;4974808;28;45543;-73
2022/08/15 04:48:14;;;;;;;;;25.25;24.25;;;;;18.59;80.86;99665.41;4976734;28;45350;-73
2022/08/15 04:50:41;;;;;;;;;29.50;28.50;;;;;18.54;80.54;99656.81;4975635;28;45403;-74
2022/08/15 04:53:07;;;;;;;;;25.50;25.50;;;;;18.56;80.14;99658.44;4975507;28;46290;-72
2022/08/15 04:55:33;;;;;;;;;28.50;28.00;;;;;18.58;80.12;99661.88;4975363;28;45460;-74
2022/08/15 04:57:59;;;;;;;;;28.00;23.25;;;;;18.60;80.27;99651.94;4975755;28;45514;-74
2022/08/15 05:00:28;;;;;;;;;26.25;22.00;;;;;18.64;79.92;99649.91;4975824;28;45392;-73
2022/08/15 05:03:18;;;;;;;;;31.25;27.50;;;;;18.70;78.93;99644.13;4975826;28;45482;-75
2022/08/15 05:05:47;;;;;;;;;26.50;22.25;;;;;18.73;78.56;99646.59;4972904;28;45430;-73
2022/08/15 05:08:13;;;;;;;;;23.50;23.00;;;;;18.72;78.66;99642.22;4976059;28;45452;-74
2022/08/15 05:10:39;;;;;;;;;29.75;23.50;;;;;18.80;78.29;99642.53;4975647;28;45460;-74
2022/08/15 05:13:19;;;;;;;;;25.00;25.00;;;;;18.83;78.09;99636.97;4975272;28;46391;-73
2022/08/15 05:15:46;;;;;;;;;24.00;23.25;;;;;18.83;77.38;99634.28;4975424;28;45436;-73
2022/08/15 05:18:12;;;;;;;;;22.75;21.25;;;;;18.88;76.81;99635.84;4975551;28;45345;-73
2022/08/15 05:20:41;;;;;;;;;19.00;18.00;;;;;18.99;76.57;99642.16;4976400;28;45590;-74
2022/08/15 05:23:10;;;;;;;;;24.25;20.00;;;;;19.05;75.65;99640.00;4974765;28;46886;-73
2022/08/15 05:25:39;;;;;;;;;22.75;21.25;;;;;19.06;75.29;99636.38;4974823;28;45635;-73
2022/08/15 05:28:05;;;;;;;;;16.75;15.00;;;;;19.14;75.58;99642.88;4975120;28;45496;-74
2022/08/15 05:30:31;;;;;;;;;19.75;19.75;;;;;19.26;75.12;99640.31;5007312;28;45395;-73
2022/08/15 05:33:12;;;;;;;;;22.50;19.50;;;;;19.54;74.05;99633.84;4975028;28;45363;-73
2022/08/15 05:35:43;;;;;;;;;24.75;20.50;;;;;19.99;72.72;99638.66;4975040;28;45467;-74
2022/08/15 05:38:21;;;;;;;;;18.75;18.75;;;;;20.30;71.00;99628.31;4974721;28;45516;-74
2022/08/15 05:40:46;;;;;;;;;19.00;18.75;;;;;20.45;69.92;99623.63;4974468;28;45497;-75
2022/08/15 05:43:21;;;;;;;;;19.50;16.25;;;;;20.59;68.71;99635.00;4975499;28;45432;-75
2022/08/15 05:45:59;;;;;;;;;21.25;17.00;;;;;20.74;67.70;99635.69;4975306;28;45467;-74
2022/08/15 05:48:33;;;;;;;;;21.75;20.50;;;;;20.85;67.22;99636.69;4990530;28;45467;-74
2022/08/15 05:51:38;;;;;;;;;16.75;15.50;;;;;21.00;66.76;99635.50;4974753;28;45413;-73
2022/08/15 05:54:36;;;;;;;;;17.00;16.00;;;;;21.29;65.27;99633.19;4974532;28;46279;-73
2022/08/15 05:57:36;;;;;;;;;16.00;15.00;;;;;21.76;62.97;99635.75;4895321;29;45548;-74
2022/08/15 06:00:07;;;;;;;;;18.00;16.00;;;;;22.23;61.78;99634.63;4895721;29;45458;-73
2022/08/15 06:02:39;;;;;;;;;19.00;15.75;;;;;22.78;60.85;99629.13;4895575;29;45436;-74
2022/08/15 06:05:27;;;;;;;;;18.75;18.25;;;;;23.19;58.46;99633.63;4895011;29;45537;-74
2022/08/15 06:07:56;;;;;;;;;16.00;16.00;;;;;23.59;57.08;99630.13;4895637;29;45381;-73
2022/08/15 06:10:38;;;;;;;;;20.25;19.00;;;;;24.02;56.43;99635.31;4895068;29;45540;-74
2022/08/15 06:13:11;;;;;;;;;20.50;18.75;;;;;24.43;54.88;99636.06;4895378;29;45337;-74
2022/08/15 06:15:51;;;;;;;;;14.00;14.00;;;;;24.88;53.92;99632.78;4896189;29;46090;-76
2022/08/15 06:18:18;;;;;;;;;12.00;12.00;;;;;25.25;51.70;99631.97;4895212;29;45647;-74
2022/08/15 06:21:02;;;;;;;;;9.50;9.50;;;;;25.74;49.93;99614.69;4895143;29;45423;-73
2022/08/15 06:23:59;;;;;;;;;11.00;10.25;;;;;26.42;48.19;99623.16;4895641;29;45539;-74
2022/08/15 06:26:27;;;;;;;;;15.75;12.25;;;;;26.71;46.74;99621.22;4884972;29;45439;-74
2022/08/15 06:29:08;;;;;;;;;21.00;17.75;;;;;27.23;46.60;99615.78;4895533;29;45431;-75
2022/08/15 06:31:37;;;;;;;;;15.75;15.75;;;;;27.83;44.54;99617.59;4895824;29;45500;-74
2022/08/15 06:34:28;;;;;;;;;17.50;17.00;;;;;28.17;45.40;99615.81;4944480;28;45679;-74
2022/08/15 06:37:02;;;;;;;;;17.00;15.25;;;;;28.62;43.97;99616.34;4974579;28;45528;-74
2022/08/15 06:39:47;;;;;;;;;30.75;27.25;;;;;29.28;41.38;99610.81;4973760;28;45417;-75
2022/08/15 06:42:34;;;;;;;;;19.50;17.50;;;;;29.90;41.22;99599.16;4955419;28;45529;-74
2022/08/15 06:45:05;;;;;;;;;44.25;34.00;;;;;30.17;39.95;99603.25;4955436;28;45402;-74
2022/08/15 06:47:31;;;;;;;;;35.50;33.50;;;;;30.82;38.44;99614.63;4969963;28;45539;-73
2022/08/15 06:50:04;;;;;;;;;39.50;35.00;;;;;31.44;38.35;99616.16;4954980;28;45692;-73
2022/08/15 06:52:30;;;;;;;;;31.75;28.75;;;;;31.61;36.81;99596.88;4958339;28;45317;-73
2022/08/15 06:54:58;;;;;;;;;19.50;18.00;;;;;32.09;36.79;99601.84;4958235;28;45406;-75
2022/08/15 06:57:43;;;;;;;;;12.50;10.00;;;;;32.80;34.58;99607.38;4958095;28;45491;-74
2022/08/15 07:00:34;;;;;;;;;43.50;35.00;;;;;33.56;33.51;99600.25;4957907;28;45496;-74
2022/08/15 07:03:20;;;;;;;;;41.50;33.50;;;;;33.89;32.61;99596.81;4957781;28;45581;-73
2022/08/15 07:05:51;;;;;;;;;32.50;27.25;;;;;34.12;32.87;99596.47;4958162;28;45523;-74
2022/08/15 07:08:40;;;;;;;;;14.50;13.00;;;;;34.25;32.69;99606.63;4973042;28;46429;-73
2022/08/15 07:11:38;;;;;;;;;26.50;22.75;;;;;34.31;31.98;99600.28;4957537;28;45488;-74
2022/08/15 07:14:16;;;;;;;;;11.75;10.50;;;;;34.29;32.10;99599.66;4963567;28;45525;-75
2022/08/15 07:16:48;;;;;;;;;12.75;12.75;;;;;34.24;32.73;99608.50;4977804;28;45468;-75
2022/08/15 07:19:14;;;;;;;;;13.75;13.75;;;;;34.39;32.39;99605.56;4976805;28;45472;-74
2022/08/15 07:21:40;;;;;;;;;23.75;19.75;;;;;34.61;31.31;99603.47;4977163;28;45530;-75
2022/08/15 07:24:30;;;;;;;;;15.00;13.25;;;;;34.83;32.04;99614.25;4977374;28;45489;-75
2022/08/15 07:27:16;;;;;;;;;17.00;15.25;;;;;34.90;31.33;99614.25;4977632;28;45686;-76
2022/08/15 07:29:46;;;;;;;;;8.75;8.75;;;;;34.66;32.08;99617.38;4976864;28;47147;-75
2022/08/15 07:32:12;;;;;;;;;11.25;11.25;;;;;34.69;31.52;99611.47;4976721;28;45367;-74
2022/08/15 07:34:53;;;;;;;;;18.25;15.00;;;;;35.17;30.63;99613.13;4977001;28;45333;-75
2022/08/15 07:37:20;;;;;;;;;13.00;13.00;;;;;35.88;30.21;99619.69;4977239;28;45664;-74
2022/08/15 07:39:57;;;;;;;;;12.75;11.00;;;;;36.11;29.42;99618.28;4976277;28;45541;-74
2022/08/15 07:42:23;;;;;;;;;9.50;8.50;;;;;36.24;29.37;99614.59;4977127;28;45440;-74
2022/08/15 07:44:57;;;;;;;;;13.50;13.50;;;;;35.91;29.32;99607.38;4977270;28;45393;-74
2022/08/15 07:47:34;;;;;;;;;11.25;9.75;;;;;36.62;29.14;99614.56;4977036;28;45282;-75
2022/08/15 07:50:27;;;;;;;;;9.00;9.00;;;;;37.33;27.88;99606.88;4977218;28;45407;-74
2022/08/15 07:52:55;;;;;;;;;15.75;13.25;;;;;37.16;27.92;99614.06;4976817;28;45391;-75
2022/08/15 07:55:22;;;;;;;;;13.25;12.00;;;;;36.95;28.35;99607.06;4976739;28;45470;-74
2022/08/15 07:58:14;;;;;;;;;13.75;13.00;;;;;37.12;28.68;99607.31;4976580;28;45442;-74
2022/08/15 08:00:40;;;;;;;;;11.75;11.75;;;;;36.30;28.74;99604.66;4976353;28;46491;-74
2022/08/15 08:03:11;;;;;;;;;10.00;8.75;;;;;35.33;29.59;99608.25;4975351;28;45384;-74
2022/08/15 08:05:54;;;;;;;;;11.50;10.25;;;;;34.10;32.40;99613.09;4976561;28;45358;-75
2022/08/15 08:08:26;;;;;;;;;10.75;10.25;;;;;33.20;33.94;99623.25;4975163;28;45337;-74
2022/08/15 08:11:03;;;;;;;;;9.75;9.75;;;;;32.65;34.97;99615.66;4975879;28;45579;-75
2022/08/15 08:13:39;;;;;;;;;13.25;13.00;;;;;32.28;35.56;99619.50;4976986;28;45390;-75
2022/08/15 08:16:33;;;;;;;;;8.00;8.00;;;;;31.55;35.84;99603.94;4976906;28;45442;-75
2022/08/15 08:19:24;;;;;;;;;7.75;6.75;;;;;30.89;37.75;99601.94;4976410;28;45492;-74
2022/08/15 08:22:18;;;;;;;;;9.00;8.00;;;;;30.82;38.73;99615.47;4977081;28;46305;-77
2022/08/15 08:25:06;;;;;;;;;10.25;9.00;;;;;30.41;38.62;99625.88;4976083;28;45385;-74
2022/08/15 08:27:57;;;;;;;;;11.25;10.25;;;;;29.50;40.54;99601.91;4976810;28;45470;-76
2022/08/15 08:30:33;;;;;;;;;8.00;7.75;;;;;29.23;40.96;99631.25;4976205;28;45399;-78
2022/08/15 08:33:09;;;;;;;;;8.00;8.00;;;;;28.81;41.74;99621.44;4976291;28;45451;-77
2022/08/15 08:36:00;;;;;;;;;8.00;7.50;;;;;28.65;41.83;99637.75;4991226;28;45431;-76
2022/08/15 08:38:49;;;;;;;;;8.00;8.00;;;;;28.31;42.77;99636.03;4976819;28;45463;-76
2022/08/15 08:41:37;;;;;;;;;10.25;10.25;;;;;28.16;43.00;99624.97;4975821;28;45491;-78
2022/08/15 08:44:20;;;;;;;;;5.00;5.00;;;;;28.01;43.12;99630.19;4976991;28;45498;-77
2022/08/15 08:47:20;;;;;;;;;7.00;7.00;;;;;27.80;44.14;99626.06;4975277;28;45454;-76
2022/08/15 08:49:54;;;;;;;;;3.75;3.75;;;;;27.80;43.41;99628.78;4975976;28;45469;-76
2022/08/15 08:53:05;;;;;;;;;8.25;6.25;;;;;27.82;43.76;99621.31;4976083;28;45414;-76
2022/08/15 08:55:49;;;;;;;;;5.75;5.75;;;;;27.76;44.48;99608.41;4964482;28;48295;-77
2022/08/15 08:58:32;;;;;;;;;7.50;5.75;;;;;27.94;43.28;99612.88;4976135;28;45401;-77
2022/08/15 09:00:59;;;;;;;;;9.00;6.00;;;;;28.84;42.06;99610.22;4975342;28;45357;-77
2022/08/15 09:03:35;;;;;;;;;10.75;7.00;;;;;29.61;40.89;99616.97;4976000;28;45507;-75
2022/08/15 09:06:01;;;;;;;;;7.75;6.00;;;;;30.41;39.53;99612.25;4976147;28;46329;-78
2022/08/15 09:08:38;;;;;;;;;2.75;2.75;;;;;30.56;39.44;99621.31;4975973;28;45459;-75
2022/08/15 09:11:18;;;;;;;;;4.50;4.50;;;;;30.30;39.51;99632.59;4973741;28;45563;-76
2022/08/15 09:13:45;;;;;;;;;6.75;5.50;;;;;30.40;39.43;99637.84;4975899;28;45320;-75
2022/08/15 09:16:19;;;;;;;;;5.00;4.00;;;;;31.09;38.50;99617.78;4975575;28;45488;-77
2022/08/15 09:19:00;;;;;;;;;4.75;4.00;;;;;31.42;37.82;99629.16;4975689;28;45480;-74
2022/08/15 09:21:27;;;;;;;;;5.00;4.25;;;;;32.13;37.75;99625.03;4975663;28;45565;-74
2022/08/15 09:23:54;;;;;;;;;4.00;4.00;;;;;32.36;35.92;99614.75;4974926;28;45456;-75
2022/08/15 09:26:40;;;;;;;;;4.25;4.25;;;;;32.00;37.04;99618.34;4975575;28;45324;-74
2022/08/15 09:29:16;;;;;;;;;3.50;2.00;;;;;31.81;37.04;99613.50;4974911;28;45384;-75
2022/08/15 09:31:48;;;;;;;;;3.50;3.50;;;;;31.42;37.89;99609.22;4975674;28;45429;-75
2022/08/15 09:34:44;;;;;;;;;3.50;2.50;;;;;31.39;37.83;99615.91;4975192;28;45357;-76
2022/08/15 09:37:47;;;;;;;;;2.25;2.25;;;;;32.67;37.00;99613.56;4975258;28;45430;-74
2022/08/15 09:40:31;;;;;;;;;1.00;1.00;;;;;33.21;34.71;99616.72;4970672;28;45531;-74
2022/08/15 09:42:59;;;;;;;;;3.75;2.25;;;;;34.07;34.23;99624.47;4975094;28;45451;-75
2022/08/15 09:45:40;;;;;;;;;2.75;2.75;;;;;34.11;33.96;99631.22;4975793;28;45407;-75
2022/08/15 09:48:14;;;;;;;;;2.25;2.25;;;;;34.05;34.16;99632.06;4975197;28;46424;-75
2022/08/15 09:50:57;;;;;;;;;1.25;1.25;;;;;33.32;34.53;99629.84;4973970;28;45397;-75
2022/08/15 09:53:40;;;;;;;;;3.00;3.00;;;;;32.67;35.74;99634.63;4955771;28;45510;-75
2022/08/15 09:56:11;;;;;;;;;2.25;2.00;;;;;32.16;36.58;99632.81;4963937;28;45592;-76
2022/08/15 09:58:51;;;;;;;;;2.50;1.00;;;;;31.32;37.77;99632.19;4974627;28;46122;-74
2022/08/15 10:01:25;;;;;;;;;2.75;1.50;;;;;30.62;38.75;99628.75;4974967;28;45452;-75
2022/08/15 10:04:02;;;;;;;;;3.75;3.75;;;;;30.48;39.52;99632.31;4975225;28;45455;-73
2022/08/15 10:06:52;;;;;;;;;3.25;3.25;;;;;30.54;39.17;99628.84;4975385;28;45557;-78
2022/08/15 10:09:32;;;;;;;;;4.00;2.75;;;;;30.00;40.91;99647.94;4974226;28;46245;-74
2022/08/15 10:12:06;;;;;;;;;4.00;4.00;;;;;29.55;41.31;99640.31;4973507;28;45422;-73
2022/08/15 10:14:52;;;;;;;;;2.00;2.00;;;;;28.90;42.31;99649.47;4975266;28;45321;-73
2022/08/15 10:17:36;;;;;;;;;2.25;2.25;;;;;28.25;43.72;99647.56;4975003;28;45475;-75
2022/08/15 10:20:14;;;;;;;;;5.25;5.00;;;;;27.91;44.94;99651.19;4974632;28;46535;-75
2022/08/15 10:22:43;;;;;;;;;3.75;3.75;;;;;27.70;46.16;99648.91;4975418;28;45427;-75
2022/08/15 10:25:35;;;;;;;;;3.75;2.00;;;;;27.48;46.88;99657.47;4973624;28;45490;-74
2022/08/15 10:28:19;;;;;;;;;3.25;3.25;;;;;27.19;47.80;99651.50;4974285;28;45399;-75
2022/08/15 10:31:05;;;;;;;;;3.75;3.75;;;;;27.06;47.71;99644.66;4974845;28;46476;-77
2022/08/15 10:33:30;;;;;;;;;5.00;3.50;;;;;26.98;49.07;99649.19;4973992;28;45467;-75
2022/08/15 10:36:14;;;;;;;;;3.25;3.25;;;;;27.12;47.96;99652.16;4974571;28;45359;-77
2022/08/15 10:38:47;;;;;;;;;4.50;3.25;;;;;27.16;47.38;99643.69;4974513;28;45421;-75
2022/08/15 10:41:50;;;;;;;;;2.25;2.25;;;;;27.06;48.23;99649.25;4973816;28;45508;-76
2022/08/15 10:44:36;;;;;;;;;3.75;3.75;;;;;27.03;47.96;99653.13;4973293;28;45418;-76
2022/08/15 10:47:28;;;;;;;;;4.00;3.00;;;;;27.17;48.70;99657.09;4973302;28;45665;-75
2022/08/15 10:50:28;;;;;;;;;2.75;2.75;;;;;27.33;47.80;99652.81;4974212;28;45438;-74
2022/08/15 10:53:39;;;;;;;;;3.00;3.00;;;;;27.51;48.18;99652.72;4974148;28;46289;-75
2022/08/15 10:56:16;;;;;;;;;4.75;3.75;;;;;27.82;48.70;99645.72;4953398;28;45661;-75
2022/08/15 10:58:41;;;;;;;;;2.00;2.00;;;;;27.78;48.05;99646.22;4974193;28;45436;-75
2022/08/15 11:01:17;;;;;;;;;3.50;1.75;;;;;27.75;47.32;99635.69;4973893;28;45439;-75
2022/08/15 11:04:03;;;;;;;;;2.75;2.75;;;;;27.70;47.44;99646.22;4973974;28;45466;-75
2022/08/15 11:06:29;;;;;;;;;1.75;1.75;;;;;27.53;48.01;99645.25;4973942;28;45356;-75
2022/08/15 11:09:09;;;;;;;;;4.75;3.00;;;;;27.35;48.01;99640.78;4974227;28;45483;-76
2022/08/15 11:11:42;;;;;;;;;6.25;5.00;;;;;27.18;48.72;99639.84;4974363;28;45980;-74
2022/08/15 11:14:21;;;;;;;;;4.00;3.50;;;;;27.02;48.99;99635.16;4973985;28;45302;-76
2022/08/15 11:16:51;;;;;;;;;4.25;3.25;;;;;26.86;49.48;99635.03;4974023;28;45428;-75
2022/08/15 11:19:28;;;;;;;;;3.00;3.00;;;;;26.66;50.16;99642.47;4973911;28;45363;-76
2022/08/15 11:21:57;;;;;;;;;3.75;3.75;;;;;26.51;50.39;99647.59;4973880;28;45433;-74
2022/08/15 11:24:38;;;;;;;;;4.00;4.00;;;;;26.37;51.35;99651.72;4972785;28;46297;-74
2022/08/15 11:27:19;;;;;;;;;4.25;4.00;;;;;26.24;51.93;99647.53;4973535;28;45348;-75
2022/08/15 11:29:46;;;;;;;;;6.25;6.25;;;;;26.08;52.17;99651.94;4973548;28;45542;-76
2022/08/15 11:32:33;;;;;;;;;5.00;5.00;;;;;25.86;53.67;99654.06;4973669;28;45533;-74
2022/08/15 11:35:01;;;;;;;;;4.75;4.75;;;;;25.82;54.42;99653.47;4973268;28;46236;-74
2022/08/15 11:37:30;;;;;;;;;5.00;5.00;;;;;25.74;54.43;99644.44;4976252;28;45462;-75
2022/08/15 11:39:58;;;;;;;;;4.75;4.75;;;;;25.86;55.33;99654.06;4976077;28;45587;-74
2022/08/15 11:42:26;;;;;;;;;8.00;6.50;;;;;25.93;54.67;99655.13;4977989;28;45348;-76
2022/08/15 11:45:01;;;;;;;;;8.75;7.25;;;;;25.90;53.13;99663.53;4977526;28;45354;-75
2022/08/15 11:47:32;;;;;;;;;11.25;10.75;;;;;25.74;53.38;99648.00;4977605;28;45428;-74
2022/08/15 11:50:01;;;;;;;;;6.00;6.00;;;;;25.80;54.43;99660.06;4976735;28;45442;-74
2022/08/15 11:52:45;;;;;;;;;7.50;6.50;;;;;25.81;53.80;99656.34;4977219;28;45438;-74